Time;durP1;ratioP1;P1;durP2;ratioP2;P2;SDS_P1;SDS_P2;PMS_P1;PMS_P2;Temp;Humidity;BMP_temperature;BMP_pressure;BME280_temperature;BME280_humidity;BME280_pressure;Samples;Min_cycle;Max_cycle;Signal;HPM_P1;HPM_P2
2021/07/09 00:02:23;;;;;;;11.10;3.83;;;29.60;59.90;;;;;;5050206;28;20503;-55
2021/07/09 00:04:49;;;;;;;7.25;3.45;;;29.60;59.90;;;;;;5032490;28;20056;-56
2021/07/09 00:07:15;;;;;;;8.88;3.42;;;29.60;59.90;;;;;;5050518;28;20395;-55
2021/07/09 00:09:41;;;;;;;10.07;3.70;;;29.60;60.00;;;;;;5050456;28;20028;-55
2021/07/09 00:12:07;;;;;;;11.65;4.60;;;29.60;60.10;;;;;;5032791;28;20040;-55
2021/07/09 00:14:36;;;;;;;9.35;4.05;;;29.60;60.10;;;;;;5032723;28;20078;-55
2021/07/09 00:17:02;;;;;;;8.00;3.97;;;29.60;60.20;;;;;;5049953;28;20039;-55
2021/07/09 00:19:29;;;;;;;7.75;3.42;;;29.50;60.00;;;;;;5050609;28;20037;-60
2021/07/09 00:21:57;;;;;;;12.77;4.05;;;29.50;60.10;;;;;;5050367;28;20388;-55
2021/07/09 00:24:23;;;;;;;9.10;3.38;;;29.50;60.20;;;;;;5050829;28;20029;-55
2021/07/09 00:26:49;;;;;;;13.20;4.35;;;29.60;60.20;;;;;;5032144;28;20017;-55
2021/07/09 00:29:15;;;;;;;9.15;4.28;;;29.60;60.20;;;;;;5032104;28;20041;-55
2021/07/09 00:31:41;;;;;;;9.15;3.95;;;29.50;60.00;;;;;;5051329;28;20067;-55
2021/07/09 00:34:08;;;;;;;8.00;3.88;;;29.60;60.20;;;;;;5054694;28;20032;-54
2021/07/09 00:36:35;;;;;;;7.90;3.55;;;29.60;60.30;;;;;;5053850;28;20037;-55
2021/07/09 00:39:06;;;;;;;11.48;4.72;;;29.60;60.20;;;;;;5054559;28;20459;-55
2021/07/09 00:41:32;;;;;;;9.43;4.00;;;29.60;60.20;;;;;;5036698;28;20155;-55
2021/07/09 00:43:58;;;;;;;9.30;4.00;;;29.60;60.20;;;;;;5054019;28;20025;-56
2021/07/09 00:46:32;;;;;;;6.80;3.85;;;29.60;60.20;;;;;;5054325;28;20618;-54
2021/07/09 00:48:58;;;;;;;9.13;3.90;;;29.60;60.10;;;;;;5053320;28;20104;-55
2021/07/09 00:51:25;;;;;;;5.20;2.95;;;29.60;60.10;;;;;;5054753;28;20135;-55
2021/07/09 00:53:51;;;;;;;9.07;3.65;;;29.60;60.00;;;;;;5054192;28;20480;-55
2021/07/09 00:56:17;;;;;;;6.03;3.60;;;29.60;60.00;;;;;;5036032;28;20123;-55
2021/07/09 00:58:43;;;;;;;5.85;3.58;;;29.60;59.90;;;;;;5054335;28;20028;-55
2021/07/09 01:01:09;;;;;;;6.35;3.38;;;29.70;60.00;;;;;;5052862;28;20017;-56
2021/07/09 01:03:35;;;;;;;6.10;3.42;;;29.70;60.50;;;;;;5035758;28;20021;-56
2021/07/09 01:06:01;;;;;;;9.32;3.70;;;29.70;60.00;;;;;;5036388;28;20029;-56
2021/07/09 01:08:27;;;;;;;8.80;3.47;;;29.70;59.80;;;;;;5053237;28;20480;-55
2021/07/09 01:10:53;;;;;;;7.72;3.28;;;29.70;59.80;;;;;;5053856;28;20037;-56
2021/07/09 01:13:19;;;;;;;8.20;3.67;;;29.70;59.70;;;;;;5053892;28;20056;-55
2021/07/09 01:15:45;;;;;;;8.38;3.42;;;29.70;59.60;;;;;;5053722;28;20037;-54
2021/07/09 01:18:12;;;;;;;11.52;3.45;;;29.70;59.60;;;;;;5053981;28;20036;-55
2021/07/09 01:20:38;;;;;;;8.45;3.30;;;29.80;59.70;;;;;;5054068;28;20021;-55
2021/07/09 01:23:04;;;;;;;9.95;3.33;;;29.80;59.70;;;;;;5038921;28;20026;-56
2021/07/09 01:25:31;;;;;;;9.88;4.03;;;29.80;59.60;;;;;;5016298;28;20464;-56
2021/07/09 01:28:05;;;;;;;9.32;4.00;;;29.80;59.60;;;;;;5045800;28;20044;-56
2021/07/09 01:30:31;;;;;;;7.60;3.30;;;29.70;59.60;;;;;;5052858;28;20025;-55
2021/07/09 01:32:57;;;;;;;7.32;3.70;;;29.80;59.60;;;;;;5053636;28;20021;-56
2021/07/09 01:35:26;;;;;;;11.63;3.50;;;29.70;59.50;;;;;;5052985;28;20029;-55
2021/07/09 01:38:06;;;;;;;6.55;3.30;;;29.70;59.60;;;;;;5053080;28;20495;-55
2021/07/09 01:40:33;;;;;;;6.10;3.00;;;29.70;59.70;;;;;;5053135;28;20036;-61
2021/07/09 01:42:59;;;;;;;8.68;3.08;;;29.70;59.60;;;;;;5052948;28;20094;-55
2021/07/09 01:45:26;;;;;;;7.40;3.15;;;29.70;59.60;;;;;;5053378;28;20067;-54
2021/07/09 01:47:53;;;;;;;10.60;3.60;;;29.70;59.60;;;;;;5034605;28;20464;-55
2021/07/09 01:50:21;;;;;;;6.88;3.10;;;29.70;59.50;;;;;;5018435;28;20025;-54
2021/07/09 01:52:47;;;;;;;7.38;3.55;;;29.60;59.50;;;;;;5035354;28;20067;-54
2021/07/09 01:55:14;;;;;;;9.05;3.55;;;29.60;59.60;;;;;;5052929;28;20496;-55
2021/07/09 01:57:42;;;;;;;8.65;3.67;;;29.60;59.70;;;;;;5052680;28;20108;-55
2021/07/09 02:00:14;;;;;;;11.65;3.97;;;29.50;59.80;;;;;;5051479;28;20518;-55
2021/07/09 02:02:41;;;;;;;7.22;3.85;;;29.50;59.90;;;;;;5052877;28;20025;-58
2021/07/09 02:05:10;;;;;;;8.07;3.30;;;29.50;60.00;;;;;;5034081;28;20139;-55
2021/07/09 02:07:37;;;;;;;8.90;3.70;;;29.50;60.60;;;;;;5035207;28;20468;-55
2021/07/09 02:10:06;;;;;;;12.07;3.70;;;29.50;60.00;;;;;;5046561;28;20048;-55
2021/07/09 02:12:33;;;;;;;17.33;4.20;;;29.40;60.00;;;;;;5034413;28;20021;-61
2021/07/09 02:15:00;;;;;;;9.80;3.72;;;29.40;60.10;;;;;;5034955;28;20133;-55
2021/07/09 02:17:26;;;;;;;10.75;3.40;;;29.40;60.10;;;;;;5052118;28;20517;-55
2021/07/09 02:19:53;;;;;;;9.95;4.28;;;29.40;60.20;;;;;;5052472;28;20043;-55
2021/07/09 02:22:21;;;;;;;7.82;4.00;;;29.40;60.20;;;;;;5052245;28;20040;-55
2021/07/09 02:24:48;;;;;;;10.85;4.25;;;29.40;60.20;;;;;;5052222;28;20029;-55
2021/07/09 02:27:14;;;;;;;9.02;3.25;;;29.30;60.20;;;;;;5051295;28;20471;-58
2021/07/09 02:29:41;;;;;;;9.40;3.35;;;29.30;60.10;;;;;;5052058;28;20016;-65
2021/07/09 02:32:10;;;;;;;10.05;4.50;;;29.30;60.20;;;;;;5052069;28;20388;-56
2021/07/09 02:34:36;;;;;;;8.10;3.53;;;29.30;60.30;;;;;;5051907;28;20017;-62
2021/07/09 02:37:04;;;;;;;9.02;3.47;;;29.30;60.30;;;;;;5032358;28;20071;-55
2021/07/09 02:39:30;;;;;;;9.00;3.50;;;29.30;60.30;;;;;;5051105;28;20021;-56
2021/07/09 02:41:57;;;;;;;13.25;4.13;;;29.30;60.30;;;;;;5051685;28;20124;-58
2021/07/09 02:44:25;;;;;;;9.00;3.50;;;29.20;60.20;;;;;;5051275;28;20063;-55
2021/07/09 02:46:52;;;;;;;7.70;4.07;;;29.30;60.30;;;;;;5051780;28;20066;-55
2021/07/09 02:49:19;;;;;;;15.27;4.22;;;29.20;60.40;;;;;;5052200;28;20052;-55
2021/07/09 02:51:45;;;;;;;15.07;4.50;;;29.20;60.40;;;;;;5033962;28;20522;-54
2021/07/09 02:54:11;;;;;;;10.75;3.88;;;29.20;60.50;;;;;;5050570;28;20021;-55
2021/07/09 02:56:37;;;;;;;7.68;3.40;;;29.10;60.50;;;;;;5033689;28;20562;-54
2021/07/09 02:59:04;;;;;;;7.68;3.95;;;29.20;60.60;;;;;;5051745;28;20096;-54
2021/07/09 03:01:30;;;;;;;11.00;3.55;;;29.20;60.60;;;;;;5034567;28;20021;-55
2021/07/09 03:03:56;;;;;;;7.78;3.67;;;29.10;60.60;;;;;;5051763;28;20021;-61
2021/07/09 03:06:23;;;;;;;12.00;3.75;;;29.10;60.50;;;;;;5033576;28;20104;-55
2021/07/09 03:08:50;;;;;;;11.02;3.90;;;29.20;60.50;;;;;;5051100;28;20082;-54
2021/07/09 03:11:17;;;;;;;9.18;4.25;;;29.10;60.40;;;;;;5037963;28;20090;-54
2021/07/09 03:13:44;;;;;;;11.48;4.13;;;29.10;60.50;;;;;;5031317;28;20485;-55
2021/07/09 03:16:10;;;;;;;11.38;3.70;;;29.10;60.60;;;;;;5031489;28;20041;-55
2021/07/09 03:18:36;;;;;;;7.70;3.90;;;29.10;60.60;;;;;;5031318;28;20034;-61
2021/07/09 03:21:03;;;;;;;10.85;3.97;;;29.10;60.60;;;;;;5031746;28;20032;-54
2021/07/09 03:23:29;;;;;;;7.15;3.28;;;29.00;60.50;;;;;;5031366;28;20523;-54
2021/07/09 03:25:57;;;;;;;9.23;3.03;;;29.00;60.50;;;;;;5038134;28;20021;-56
2021/07/09 03:28:24;;;;;;;7.13;3.28;;;29.10;60.50;;;;;;5051009;28;20190;-55
2021/07/09 03:30:49;;;;;;;4.93;3.45;;;29.10;60.40;;;;;;5033425;28;20036;-55
2021/07/09 03:33:15;;;;;;;6.18;3.58;;;29.20;60.40;;;;;;5033094;28;20029;-57
2021/07/09 03:35:42;;;;;;;8.75;3.70;;;29.20;60.30;;;;;;5051406;28;20033;-56
2021/07/09 03:38:08;;;;;;;7.80;3.50;;;29.20;60.20;;;;;;5033325;28;20358;-56
2021/07/09 03:40:34;;;;;;;5.65;2.95;;;29.20;60.10;;;;;;5051199;28;20031;-54
2021/07/09 03:43:00;;;;;;;9.50;3.08;;;29.30;60.10;;;;;;5050992;28;20507;-55
2021/07/09 03:45:26;;;;;;;8.90;3.50;;;29.30;60.00;;;;;;5050393;28;20065;-55
2021/07/09 03:47:52;;;;;;;10.68;3.95;;;29.30;60.00;;;;;;5050026;28;20476;-55
2021/07/09 03:50:19;;;;;;;7.40;3.58;;;29.20;59.80;;;;;;5050754;28;20736;-55
2021/07/09 03:52:45;;;;;;;10.93;4.03;;;29.20;59.80;;;;;;5050806;28;20031;-57
2021/07/09 03:55:11;;;;;;;5.45;3.30;;;29.30;59.90;;;;;;5050757;28;20057;-55
2021/07/09 03:57:37;;;;;;;11.93;3.95;;;29.20;59.90;;;;;;5051000;28;20482;-53
2021/07/09 04:00:08;;;;;;;7.22;3.22;;;29.20;59.80;;;;;;5051274;28;20017;-54
2021/07/09 04:02:40;;;;;;;8.23;3.47;;;29.30;59.90;;;;;;5050289;28;20036;-60
2021/07/09 04:05:06;;;;;;;6.93;3.47;;;29.20;59.80;;;;;;5050687;28;20021;-54
2021/07/09 04:07:33;;;;;;;6.43;3.47;;;29.20;59.90;;;;;;5049437;28;20029;-54
2021/07/09 04:09:59;;;;;;;6.45;2.90;;;29.20;59.90;;;;;;5049607;28;20029;-54
2021/07/09 04:12:25;;;;;;;6.60;3.55;;;29.20;59.90;;;;;;5050476;28;20021;-55
2021/07/09 04:14:51;;;;;;;10.23;3.30;;;29.20;59.80;;;;;;5050060;28;20021;-57
2021/07/09 04:17:17;;;;;;;9.45;4.70;;;29.20;59.90;;;;;;5050112;28;20036;-54
2021/07/09 04:19:43;;;;;;;11.15;4.13;;;29.20;59.90;;;;;;5050370;28;20013;-55
2021/07/09 04:22:09;;;;;;;11.50;4.05;;;29.20;60.00;;;;;;5050537;28;20410;-61
2021/07/09 04:24:35;;;;;;;10.27;3.70;;;29.20;60.00;;;;;;5032819;28;20060;-56
2021/07/09 04:27:01;;;;;;;17.20;4.38;;;29.20;60.00;;;;;;5014796;28;20031;-55
2021/07/09 04:29:27;;;;;;;8.07;3.95;;;29.10;60.00;;;;;;5050807;28;20056;-56
2021/07/09 04:31:52;;;;;;;11.07;3.95;;;29.10;60.00;;;;;;5032082;28;20412;-56
2021/07/09 04:34:18;;;;;;;7.65;3.55;;;29.10;60.00;;;;;;5050667;28;20032;-55
2021/07/09 04:36:44;;;;;;;8.32;3.30;;;29.10;60.00;;;;;;5032298;28;20088;-54
2021/07/09 04:39:10;;;;;;;9.98;4.07;;;29.00;59.90;;;;;;5049628;28;20492;-60
2021/07/09 04:41:37;;;;;;;7.53;4.05;;;29.00;59.90;;;;;;5050599;28;20041;-54
2021/07/09 04:44:03;;;;;;;9.13;3.22;;;29.00;59.90;;;;;;5050495;28;20025;-54
2021/07/09 04:46:29;;;;;;;12.23;3.90;;;29.00;59.90;;;;;;5050090;28;20036;-54
2021/07/09 04:48:55;;;;;;;9.25;3.97;;;29.00;59.90;;;;;;5049966;28;20098;-56
2021/07/09 04:51:21;;;;;;;5.80;3.22;;;29.00;59.90;;;;;;5028837;28;20464;-55
2021/07/09 04:53:47;;;;;;;4.90;3.08;;;29.00;60.00;;;;;;5049530;28;20036;-56
2021/07/09 04:56:13;;;;;;;8.02;3.88;;;29.00;60.00;;;;;;5031990;28;20492;-56
2021/07/09 04:58:39;;;;;;;9.50;3.55;;;28.90;59.90;;;;;;5032434;28;20037;-55
2021/07/09 05:01:05;;;;;;;7.32;3.30;;;28.90;59.90;;;;;;5032092;28;20052;-55
2021/07/09 05:03:31;;;;;;;9.02;4.00;;;29.00;59.90;;;;;;5032487;28;20036;-55
2021/07/09 05:05:57;;;;;;;6.43;3.53;;;29.00;60.00;;;;;;5050493;28;20036;-55
2021/07/09 05:08:23;;;;;;;8.05;3.55;;;29.00;59.90;;;;;;5049784;28;20094;-55
2021/07/09 05:10:49;;;;;;;7.20;3.50;;;29.00;59.90;;;;;;5049495;28;20861;-54
2021/07/09 05:13:15;;;;;;;9.15;4.05;;;29.00;60.00;;;;;;5031623;28;20043;-55
2021/07/09 05:15:41;;;;;;;12.77;3.70;;;29.00;59.90;;;;;;5050090;28;20029;-54
2021/07/09 05:18:07;;;;;;;7.65;3.80;;;28.90;59.90;;;;;;5017924;28;20411;-55
2021/07/09 05:20:33;;;;;;;11.18;4.07;;;29.00;59.90;;;;;;5035951;28;20033;-53
2021/07/09 05:22:59;;;;;;;9.10;3.72;;;29.00;59.80;;;;;;5053245;28;20029;-54
2021/07/09 05:25:25;;;;;;;9.32;3.33;;;28.90;59.70;;;;;;5035918;28;20029;-55
2021/07/09 05:27:51;;;;;;;9.73;3.70;;;28.90;59.70;;;;;;5035801;28;20032;-56
2021/07/09 05:30:17;;;;;;;8.20;3.10;;;29.00;59.70;;;;;;5053402;28;20468;-57
2021/07/09 05:32:43;;;;;;;8.15;3.40;;;29.00;59.50;;;;;;5052346;28;20029;-60
2021/07/09 05:35:10;;;;;;;8.13;3.60;;;29.00;59.30;;;;;;5053812;28;20025;-55
2021/07/09 05:37:36;;;;;;;6.75;3.28;;;29.00;59.20;;;;;;5053191;28;20435;-54
2021/07/09 05:40:03;;;;;;;8.77;3.15;;;29.00;59.10;;;;;;5053364;28;20021;-54
2021/07/09 05:42:29;;;;;;;9.23;3.45;;;29.00;59.00;;;;;;5053140;28;20132;-54
2021/07/09 05:44:55;;;;;;;8.00;3.80;;;29.00;58.90;;;;;;5053109;28;20119;-56
2021/07/09 05:47:21;;;;;;;8.88;4.03;;;29.00;58.40;;;;;;5053569;28;20025;-55
2021/07/09 05:49:47;;;;;;;9.23;3.80;;;29.00;58.20;;;;;;5052642;28;20098;-55
2021/07/09 05:52:13;;;;;;;8.70;3.80;;;29.00;58.20;;;;;;5034846;28;20468;-55
2021/07/09 05:54:39;;;;;;;13.52;3.80;;;29.00;57.70;;;;;;5053254;28;20029;-55
2021/07/09 05:57:05;;;;;;;6.70;3.15;;;28.90;57.60;;;;;;5053106;28;20406;-55
2021/07/09 05:59:31;;;;;;;7.45;3.67;;;28.90;57.60;;;;;;5053159;28;20063;-54
2021/07/09 06:01:57;;;;;;;9.40;3.80;;;28.90;57.50;;;;;;5018730;28;20033;-54
2021/07/09 06:04:24;;;;;;;7.50;3.20;;;28.90;57.30;;;;;;5052403;28;20040;-54
2021/07/09 06:06:50;;;;;;;7.70;3.10;;;28.90;57.30;;;;;;5047285;28;20037;-54
2021/07/09 06:09:16;;;;;;;9.30;3.88;;;28.80;57.20;;;;;;5048961;28;20112;-64
2021/07/09 06:11:43;;;;;;;9.10;3.22;;;28.90;57.30;;;;;;5051989;28;20395;-60
2021/07/09 06:14:09;;;;;;;6.13;3.40;;;28.90;56.80;;;;;;5050888;28;20074;-59
2021/07/09 06:16:35;;;;;;;6.90;3.20;;;28.90;56.80;;;;;;5050657;28;20053;-60
2021/07/09 06:19:01;;;;;;;6.65;3.05;;;28.90;57.00;;;;;;5050773;28;20029;-59
2021/07/09 06:21:27;;;;;;;8.82;4.00;;;28.90;56.60;;;;;;5050041;28;20021;-59
2021/07/09 06:23:54;;;;;;;9.05;3.45;;;28.90;56.60;;;;;;5049523;28;20467;-59
2021/07/09 06:26:21;;;;;;;6.53;3.20;;;29.00;56.50;;;;;;5050761;28;20025;-59
2021/07/09 06:28:48;;;;;;;10.52;3.65;;;29.00;56.30;;;;;;5049337;28;20033;-59
2021/07/09 06:31:14;;;;;;;9.27;3.20;;;28.90;56.10;;;;;;5013028;28;20476;-60
2021/07/09 06:33:40;;;;;;;9.85;3.53;;;29.00;56.20;;;;;;5043655;28;20079;-61
2021/07/09 06:36:06;;;;;;;7.68;3.53;;;29.00;55.90;;;;;;5048303;28;20429;-61
2021/07/09 06:38:32;;;;;;;8.43;3.35;;;29.00;55.60;;;;;;5058561;28;20122;-61
2021/07/09 06:40:58;;;;;;;8.38;3.33;;;29.00;55.70;;;;;;5050011;28;20025;-60
2021/07/09 06:43:24;;;;;;;8.32;3.42;;;29.00;55.80;;;;;;5049957;28;20021;-61
2021/07/09 06:45:50;;;;;;;7.10;3.67;;;29.00;55.80;;;;;;5049518;28;20341;-60
2021/07/09 06:48:16;;;;;;;11.50;3.50;;;29.10;55.60;;;;;;5030442;28;20163;-60
2021/07/09 06:50:42;;;;;;;8.98;3.35;;;29.10;55.60;;;;;;5049246;28;20101;-60
2021/07/09 06:53:08;;;;;;;8.57;3.25;;;29.10;55.40;;;;;;5050201;28;20032;-60
2021/07/09 06:55:36;;;;;;;13.02;4.55;;;29.10;54.80;;;;;;5049767;28;20633;-60
2021/07/09 06:58:03;;;;;;;7.03;2.78;;;29.10;54.90;;;;;;5031847;28;20103;-60
2021/07/09 07:00:29;;;;;;;6.00;3.60;;;29.10;55.10;;;;;;5049636;28;20037;-61
2021/07/09 07:02:55;;;;;;;6.75;3.13;;;29.10;55.00;;;;;;5048794;28;20028;-61
2021/07/09 07:05:21;;;;;;;10.10;3.38;;;29.10;55.20;;;;;;5049596;28;20416;-61
2021/07/09 07:07:47;;;;;;;7.22;3.40;;;29.20;55.40;;;;;;5047191;28;20043;-61
2021/07/09 07:10:14;;;;;;;8.30;3.38;;;29.20;55.10;;;;;;5031331;28;20112;-59
2021/07/09 07:12:42;;;;;;;5.15;2.92;;;29.20;55.20;;;;;;5042307;28;20021;-59
2021/07/09 07:15:09;;;;;;;9.18;3.58;;;29.20;55.20;;;;;;5031570;28;20037;-60
2021/07/09 07:17:37;;;;;;;7.25;3.53;;;29.20;55.00;;;;;;5048523;28;20508;-59
2021/07/09 07:20:04;;;;;;;9.27;3.85;;;29.30;55.00;;;;;;5045169;28;20021;-60
2021/07/09 07:22:30;;;;;;;8.23;3.22;;;29.30;54.90;;;;;;5031741;28;20384;-59
2021/07/09 07:24:56;;;;;;;7.93;3.42;;;29.30;55.10;;;;;;5013954;28;20032;-59
2021/07/09 07:27:27;;;;;;;11.75;4.10;;;29.40;55.00;;;;;;5031321;28;20436;-61
2021/07/09 07:29:58;;;;;;;9.98;4.03;;;29.40;55.10;;;;;;5031347;28;20033;-61
2021/07/09 07:32:25;;;;;;;9.13;3.78;;;29.30;55.50;;;;;;5035828;28;20033;-60
2021/07/09 07:34:51;;;;;;;9.57;3.80;;;29.30;55.40;;;;;;5029273;28;20032;-60
2021/07/09 07:37:17;;;;;;;8.63;3.85;;;29.30;55.60;;;;;;5047568;28;20045;-61
2021/07/09 07:39:43;;;;;;;8.52;3.80;;;29.20;56.10;;;;;;5049538;28;20063;-60
2021/07/09 07:42:09;;;;;;;11.27;3.78;;;29.20;56.30;;;;;;5032635;28;20097;-60
2021/07/09 07:44:35;;;;;;;10.30;3.72;;;29.20;56.40;;;;;;5049402;28;20029;-61
2021/07/09 07:47:01;;;;;;;9.15;3.20;;;29.20;56.60;;;;;;5050635;28;20033;-61
2021/07/09 07:49:27;;;;;;;7.50;3.25;;;29.20;56.80;;;;;;5050580;28;20013;-60
2021/07/09 07:51:53;;;;;;;10.40;4.15;;;29.10;56.90;;;;;;5032083;28;20025;-59
2021/07/09 07:54:19;;;;;;;7.57;3.47;;;29.10;57.00;;;;;;5030603;28;20496;-52
2021/07/09 07:56:46;;;;;;;15.00;3.42;;;29.10;57.20;;;;;;5047876;28;20076;-62
2021/07/09 07:59:12;;;;;;;13.73;4.30;;;29.20;57.30;;;;;;5044056;28;20013;-53
2021/07/09 08:01:38;;;;;;;8.57;3.55;;;29.30;57.10;;;;;;5048953;28;20631;-55
2021/07/09 08:04:05;;;;;;;10.82;3.17;;;29.30;57.30;;;;;;5050668;28;20048;-55
2021/07/09 08:06:31;;;;;;;9.32;3.55;;;29.30;57.40;;;;;;5051164;28;20028;-55
2021/07/09 08:08:58;;;;;;;11.13;3.90;;;29.30;57.30;;;;;;5050456;28;20017;-55
2021/07/09 08:11:24;;;;;;;10.07;3.60;;;29.40;57.10;;;;;;5050591;28;20075;-56
2021/07/09 08:13:50;;;;;;;8.02;3.63;;;29.40;56.80;;;;;;5059140;28;20016;-56
2021/07/09 08:16:16;;;;;;;8.05;3.20;;;29.40;56.60;;;;;;5042892;28;20385;-57
2021/07/09 08:18:43;;;;;;;9.73;4.00;;;29.40;56.60;;;;;;5031759;28;20033;-56
2021/07/09 08:21:09;;;;;;;10.90;4.50;;;29.40;56.10;;;;;;5050534;28;20047;-56
2021/07/09 08:23:35;;;;;;;12.95;4.20;;;29.50;55.40;;;;;;5012649;28;20025;-56
2021/07/09 08:26:01;;;;;;;10.00;3.67;;;29.40;55.70;;;;;;5030031;28;20060;-56
2021/07/09 08:28:28;;;;;;;7.82;3.10;;;29.50;55.20;;;;;;5050271;28;20021;-56
2021/07/09 08:30:54;;;;;;;9.90;3.40;;;29.30;55.80;;;;;;5050589;28;20021;-57
2021/07/09 08:33:20;;;;;;;9.75;3.42;;;29.30;55.80;;;;;;5032111;28;20040;-56
2021/07/09 08:35:46;;;;;;;13.38;3.92;;;29.30;55.60;;;;;;5049162;28;20021;-56
2021/07/09 08:38:12;;;;;;;12.43;3.80;;;29.20;55.80;;;;;;4995191;28;20496;-57
2021/07/09 08:40:39;;;;;;;10.10;3.92;;;29.20;55.90;;;;;;5027922;28;20136;-54
2021/07/09 08:43:05;;;;;;;9.68;4.22;;;29.20;56.20;;;;;;4997686;28;20040;-58
2021/07/09 08:45:31;;;;;;;9.57;3.75;;;29.20;55.70;;;;;;5009337;28;20044;-56
2021/07/09 08:47:58;;;;;;;9.52;3.45;;;29.30;55.60;;;;;;5008733;28;20207;-57
2021/07/09 08:50:24;;;;;;;10.95;3.38;;;29.30;55.60;;;;;;5009680;28;20037;-57
2021/07/09 08:52:52;;;;;;;7.53;3.42;;;29.30;55.30;;;;;;5010993;28;20385;-56
2021/07/09 08:55:19;;;;;;;7.70;3.15;;;29.30;55.60;;;;;;5013522;28;20049;-55
2021/07/09 08:57:46;;;;;;;11.90;3.75;;;29.40;55.60;;;;;;5012889;28;20421;-55
2021/07/09 09:01:25;;;;;;;246.27;22.13;;;29.50;55.20;;;;;;5170239;27;20121;-49
2021/07/09 09:04:05;;;;;;;9.43;3.30;;;29.40;55.40;;;;;;5119022;27;20381;-48
2021/07/09 09:06:31;;;;;;;8.73;3.70;;;29.30;55.40;;;;;;5133695;27;20031;-50
2021/07/09 09:08:57;;;;;;;12.20;3.58;;;29.10;55.50;;;;;;5136273;27;20034;-49
2021/07/09 09:11:23;;;;;;;10.30;4.10;;;29.00;56.10;;;;;;5140953;27;20067;-49
2021/07/09 09:13:49;;;;;;;11.00;4.22;;;28.90;56.40;;;;;;5148226;27;20102;-49
2021/07/09 09:16:16;;;;;;;11.20;3.30;;;28.80;56.60;;;;;;5137559;27;20453;-49
2021/07/09 09:18:45;;;;;;;9.98;4.18;;;28.90;56.40;;;;;;5141046;27;20023;-49
2021/07/09 09:21:16;;;;;;;8.85;3.03;;;28.80;56.40;;;;;;5139881;27;20038;-49
2021/07/09 09:23:49;;;;;;;7.82;3.58;;;28.80;56.30;;;;;;5149766;27;20027;-49
2021/07/09 09:26:41;;;;;;;7.35;2.92;;;28.80;56.00;;;;;;5147773;27;20027;-50
2021/07/09 09:29:14;;;;;;;8.40;3.13;;;28.70;56.20;;;;;;5149777;27;20026;-49
2021/07/09 09:31:40;;;;;;;12.57;4.57;;;28.70;56.00;;;;;;5147852;27;20027;-49
2021/07/09 09:34:07;;;;;;;16.33;4.03;;;28.70;56.00;;;;;;5125159;27;20023;-49
2021/07/09 09:36:34;;;;;;;8.90;3.10;;;28.70;56.00;;;;;;5138564;27;20535;-50
2021/07/09 09:39:03;;;;;;;10.50;3.55;;;28.60;56.20;;;;;;5116500;27;20022;-51
2021/07/09 09:41:30;;;;;;;8.07;3.38;;;28.60;56.20;;;;;;5138896;27;20112;-61
2021/07/09 09:44:13;;;;;;;11.75;3.58;;;28.60;55.90;;;;;;5129006;27;20122;-62
2021/07/09 09:46:40;;;;;;;9.18;3.50;;;28.50;56.10;;;;;;5129310;27;20071;-60
2021/07/09 09:49:12;;;;;;;11.60;3.90;;;28.50;56.00;;;;;;5144816;27;20490;-59
2021/07/09 09:51:38;;;;;;;6.72;2.75;;;28.20;56.40;;;;;;5127581;27;20420;-59
2021/07/09 09:54:06;;;;;;;8.32;3.05;;;28.20;56.90;;;;;;5127579;28;20035;-58
2021/07/09 09:56:46;;;;;;;7.30;3.55;;;28.00;56.90;;;;;;5109301;28;20027;-58
2021/07/09 09:59:25;;;;;;;6.95;3.10;;;27.90;57.00;;;;;;5124700;27;20023;-59
2021/07/09 10:01:56;;;;;;;9.27;4.25;;;27.90;57.20;;;;;;5143473;27;20051;-59
2021/07/09 10:04:25;;;;;;;8.68;3.55;;;27.90;56.60;;;;;;5109295;27;20121;-60
2021/07/09 10:06:51;;;;;;;10.43;3.83;;;28.00;56.60;;;;;;5121461;28;20019;-59
2021/07/09 10:09:19;;;;;;;7.45;3.08;;;27.90;56.90;;;;;;5109058;28;20039;-58
2021/07/09 10:11:46;;;;;;;8.77;3.50;;;27.90;56.90;;;;;;5101166;28;20505;-59
2021/07/09 10:14:17;;;;;;;8.80;3.03;;;28.00;56.60;;;;;;5098764;28;20015;-58
2021/07/09 10:16:48;;;;;;;7.93;4.05;;;28.10;56.40;;;;;;5125003;27;20030;-58
2021/07/09 10:19:26;;;;;;;10.43;3.60;;;28.10;56.40;;;;;;5100910;28;20229;-58
2021/07/09 10:21:52;;;;;;;11.70;3.63;;;28.10;56.10;;;;;;5115377;27;20110;-58
2021/07/09 10:24:19;;;;;;;10.52;3.30;;;28.30;56.10;;;;;;5115641;27;20569;-59
2021/07/09 10:26:51;;;;;;;5.13;3.08;;;28.20;55.50;;;;;;5133174;27;20019;-59
2021/07/09 10:29:20;;;;;;;9.73;3.75;;;28.30;55.70;;;;;;5094700;28;20034;-59
2021/07/09 10:31:48;;;;;;;5.63;3.10;;;28.50;55.80;;;;;;5104155;27;20179;-59
2021/07/09 10:34:31;;;;;;;6.95;3.40;;;28.60;55.50;;;;;;5136215;27;20109;-58
2021/07/09 10:37:03;;;;;;;5.63;2.50;;;28.50;54.70;;;;;;5120513;27;20081;-58
2021/07/09 10:39:50;;;;;;;11.35;3.25;;;28.60;55.30;;;;;;5114804;27;20108;-58
2021/07/09 10:42:29;;;;;;;10.07;3.95;;;28.70;54.80;;;;;;5129493;27;20059;-57
2021/07/09 10:45:09;;;;;;;11.60;3.97;;;28.70;54.60;;;;;;5122921;27;20019;-57
2021/07/09 10:47:39;;;;;;;13.30;3.80;;;28.80;55.00;;;;;;5098505;28;20039;-58
2021/07/09 10:50:08;;;;;;;5.90;3.22;;;28.80;54.20;;;;;;5128195;27;20026;-57
2021/07/09 10:52:51;;;;;;;9.23;3.28;;;28.90;54.40;;;;;;5117884;27;20031;-57
2021/07/09 10:55:27;;;;;;;8.05;3.25;;;28.70;53.70;;;;;;5113154;28;20027;-58
2021/07/09 10:58:08;;;;;;;9.35;3.80;;;28.60;54.20;;;;;;5113260;28;20367;-57
2021/07/09 11:00:49;;;;;;;7.80;3.03;;;28.60;54.20;;;;;;5112257;28;20094;-58
2021/07/09 11:03:32;;;;;;;11.80;3.70;;;28.70;54.30;;;;;;5094980;27;20024;-58
2021/07/09 11:06:04;;;;;;;8.10;3.20;;;28.60;54.10;;;;;;5133333;27;20041;-57
2021/07/09 11:08:32;;;;;;;8.48;3.50;;;28.60;54.30;;;;;;5132641;27;20027;-57
2021/07/09 11:11:01;;;;;;;10.05;3.15;;;28.60;54.30;;;;;;5114689;27;20414;-57
2021/07/09 11:13:44;;;;;;;9.43;3.55;;;28.60;54.30;;;;;;5131351;27;20033;-57
2021/07/09 11:16:25;;;;;;;6.47;3.08;;;28.70;53.90;;;;;;5130418;27;20354;-57
2021/07/09 11:19:07;;;;;;;8.75;3.95;;;28.70;53.50;;;;;;5113074;27;20107;-57
2021/07/09 11:21:36;;;;;;;7.10;3.30;;;28.70;53.40;;;;;;5093893;28;20035;-59
2021/07/09 11:24:08;;;;;;;8.40;3.30;;;28.60;53.70;;;;;;5111259;27;20031;-62
2021/07/09 11:26:40;;;;;;;10.35;3.63;;;28.60;53.50;;;;;;5112258;28;20033;-59
2021/07/09 11:29:26;;;;;;;9.90;2.80;;;28.40;53.80;;;;;;5114571;27;20043;-57
2021/07/09 11:31:55;;;;;;;6.05;3.22;;;28.60;55.10;;;;;;5105734;27;20080;-59
2021/07/09 11:34:23;;;;;;;7.43;3.00;;;28.70;54.00;;;;;;5123326;27;20363;-59
2021/07/09 11:36:53;;;;;;;16.15;3.83;;;28.80;53.50;;;;;;5111612;28;20027;-59
2021/07/09 11:39:22;;;;;;;12.05;4.38;;;28.90;53.40;;;;;;5120173;27;20025;-57
2021/07/09 11:42:10;;;;;;;14.00;4.20;;;29.00;53.50;;;;;;5120435;27;20134;-58
2021/07/09 11:44:49;;;;;;;7.20;3.63;;;29.10;52.50;;;;;;5112073;27;20105;-58
2021/07/09 11:47:16;;;;;;;10.35;4.38;;;29.10;52.90;;;;;;5152996;27;20147;-57
2021/07/09 11:49:47;;;;;;;9.02;4.10;;;29.10;52.60;;;;;;5134113;27;20105;-58
2021/07/09 11:52:18;;;;;;;8.65;3.80;;;29.20;52.80;;;;;;5105134;27;20126;-58
2021/07/09 11:54:48;;;;;;;14.38;3.60;;;29.40;52.40;;;;;;5111621;27;20123;-57
2021/07/09 11:57:17;;;;;;;8.57;3.38;;;29.40;52.50;;;;;;5116724;27;20034;-58
2021/07/09 11:59:45;;;;;;;8.40;3.17;;;29.40;52.00;;;;;;5121247;27;20051;-57
2021/07/09 12:02:23;;;;;;;11.60;3.50;;;29.40;52.20;;;;;;5127938;27;20023;-57
2021/07/09 12:04:51;;;;;;;10.23;7.13;;;29.50;52.40;;;;;;5127381;27;20801;-57
2021/07/09 12:07:27;;;;;;;12.25;3.78;;;29.60;52.20;;;;;;5120024;27;20030;-58
2021/07/09 12:09:57;;;;;;;7.00;3.20;;;29.60;51.90;;;;;;5096903;27;20028;-58
2021/07/09 12:12:27;;;;;;;7.43;2.83;;;29.60;51.80;;;;;;5118074;27;20035;-57
2021/07/09 12:14:57;;;;;;;7.88;3.78;;;29.70;52.00;;;;;;5121860;27;20125;-58
2021/07/09 12:17:25;;;;;;;11.77;3.92;;;29.80;51.70;;;;;;5119545;27;20034;-58
2021/07/09 12:20:04;;;;;;;7.97;3.28;;;30.00;51.60;;;;;;5128000;27;20153;-58
2021/07/09 12:22:34;;;;;;;8.93;4.45;;;30.10;51.50;;;;;;5113850;27;20072;-59
2021/07/09 12:25:02;;;;;;;10.07;3.80;;;30.10;50.80;;;;;;5113306;27;20019;-57
2021/07/09 12:27:33;;;;;;;7.53;3.70;;;30.10;50.60;;;;;;5132136;27;20374;-59
2021/07/09 12:30:04;;;;;;;9.48;3.33;;;30.00;50.20;;;;;;5131772;27;20134;-59
2021/07/09 12:32:30;;;;;;;8.20;3.25;;;30.00;50.60;;;;;;5130008;27;20046;-57
2021/07/09 12:35:08;;;;;;;7.05;3.35;;;30.30;50.50;;;;;;5121043;27;20500;-57
2021/07/09 12:37:35;;;;;;;9.05;2.63;;;30.30;51.10;;;;;;5110714;28;20176;-58
2021/07/09 12:40:13;;;;;;;8.48;3.58;;;30.30;50.40;;;;;;5092455;28;20119;-58
2021/07/09 12:42:39;;;;;;;9.60;3.85;;;30.40;49.70;;;;;;5092832;27;20129;-59
2021/07/09 12:45:06;;;;;;;8.57;3.08;;;30.40;49.90;;;;;;5122287;27;20016;-59
2021/07/09 12:47:34;;;;;;;6.97;4.68;;;30.40;49.60;;;;;;5115622;27;20035;-58
2021/07/09 12:50:17;;;;;;;9.98;3.05;;;30.50;48.90;;;;;;5116222;27;20049;-58